Terminal Aerodrome Forecast
Issued by NWS Northern Indiana

Home | Current Version | Previous Version | Text Only | Print | Product List | Glossary Off
Versions: 1 2 3 4 5 6 7 8 9 10 11 12 13 14 15 16 17 18

092
FTUS43 KIWX 020225 AAA
TAFFWA
TAF AMD
KFWA 020225Z 0202/0224 07012KT 4SM SHRA BR OVC008
      TEMPO 0202/0205 2SM TSRA OVC005CB
     FM020800 34010KT 3SM BR OVC003
     FM021400 04008KT 5SM BR OVC008
     FM021900 05008KT P6SM OVC020=

USA.gov is the U.S. government's official web portal to all federal, state and local government web resources and services.